Fidato — PB5970 — position and weather

sailwx.info

Track history (hours):
 
Tides and Currents Weather Stations Pressure Air Temp Water Temp Dewpoint Dewpoint Depression Visibility Wind Speed Wind Dir Waves Ship Positions

Fidato

Last reported at 2014-Oct-18 05:10 UTC. Time now 2014-Oct-21 13:45 UTC.
Position N 51°05' E 006°51'.

Length 135 m; draft 2.5 m.

Type: Ship. MMSI: 244670975.

Date/timePositionNaut miles runAvg speedWind from/ knotsBaromVisibWave heightAir tempDewpointWater temp
2014-Oct-18 05:10N 51°05' E 006°51'2 4.0
2014-Oct-18 04:33N 51°07' E 006°52'3 2.8
2014-Oct-18 03:33N 51°09' E 006°49'3 3.1
2014-Oct-18 02:33N 51°11' E 006°45'0 0.1
2014-Oct-18 01:33N 51°11' E 006°45'0 0.0
2014-Oct-18 00:33N 51°11' E 006°45'0 0.0
2014-Oct-17 23:33N 51°11' E 006°45'0 0.0
2014-Oct-17 22:33N 51°11' E 006°45'0 0.0
2014-Oct-17 21:33N 51°11' E 006°45'0 0.0
2014-Oct-17 20:33N 51°11' E 006°45'0 0.1
2014-Oct-17 19:33N 51°11' E 006°45'3 2.8
2014-Oct-17 18:33N 51°14' E 006°45'2 2.5
2014-Oct-17 17:33N 51°16' E 006°43'4 4.2
2014-Oct-17 16:33N 51°20' E 006°43'31 3.6
2014-Oct-17 08:09N 51°47' E 006°19'19 5.1
2014-Oct-17 04:31N 51°52' E 005°50'6 6.1
2014-Oct-17 03:33N 51°54' E 005°41'5 5.5
2014-Oct-17 02:33N 51°54' E 005°32'0 0.0
2014-Oct-17 01:33N 51°54' E 005°32'0 0.0
2014-Oct-17 00:33N 51°54' E 005°32'0 0.0
2014-Oct-16 23:33N 51°54' E 005°32'0 0.0
2014-Oct-16 22:32N 51°54' E 005°32'0 0.0
2014-Oct-16 21:33N 51°54' E 005°32'0 0.0
2014-Oct-16 20:33N 51°54' E 005°32'0 0.0
2014-Oct-16 19:33N 51°54' E 005°32'3 2.5
2014-Oct-16 18:33N 51°53' E 005°29'6 5.6
2014-Oct-16 17:33N 51°49' E 005°23'5 4.8
2014-Oct-16 16:33N 51°49' E 005°15'6 5.9
2014-Oct-16 15:33N 51°50' E 005°05'7 6.9
2014-Oct-16 14:33N 51°49' E 004°54'7 6.9
2014-Oct-16 13:33N 51°49' E 004°43'3 2.6
2014-Oct-16 12:34N 51°49' E 004°39'3 2.5
2014-Oct-16 11:33N 51°46' E 004°38'7 6.8
2014-Oct-16 10:30N 51°42' E 004°29'3 3.7
2014-Oct-16 09:33N 51°41' E 004°24'7 7.3
2014-Oct-16 08:33N 51°39' E 004°12'2 1.5
2014-Oct-16 07:32N 51°40' E 004°10'4 4.6
2014-Oct-16 06:33N 51°37' E 004°04'5 5.5
2014-Oct-16 05:33N 51°32' E 003°60'5 5.1
2014-Oct-16 04:33N 51°27' E 004°01'1010.0
2014-Oct-16 03:34N 51°20' E 003°49'1 0.6
2014-Oct-16 02:33N 51°20' E 003°49'0 0.0
2014-Oct-16 01:33N 51°20' E 003°49'0 0.0
2014-Oct-16 00:33N 51°20' E 003°49'0 0.0
2014-Oct-15 23:33N 51°20' E 003°49'0 0.0
2014-Oct-15 22:33N 51°20' E 003°49'0 0.0
2014-Oct-15 21:33N 51°20' E 003°49'7 7.0
2014-Oct-15 20:33N 51°13' E 003°48'8 7.5
2014-Oct-15 19:33N 51°06' E 003°45'0 0.3
2014-Oct-15 18:34N 51°05' E 003°45'0 0.0
2014-Oct-15 17:33N 51°05' E 003°45'0 0.0
2014-Oct-15 16:33N 51°05' E 003°45'0 0.0
2014-Oct-15 15:33N 51°05' E 003°45'0 0.0
2014-Oct-15 14:33N 51°05' E 003°45'0 0.0
2014-Oct-15 13:33N 51°05' E 003°45'0 0.0
2014-Oct-15 12:33N 51°05' E 003°45'0 0.3
2014-Oct-15 11:33N 51°06' E 003°45'0 0.0
2014-Oct-15 10:33N 51°06' E 003°45'0 0.0
2014-Oct-15 09:33N 51°06' E 003°45'0 0.0
2014-Oct-15 08:33N 51°06' E 003°45'4 3.6
2014-Oct-15 07:33N 51°09' E 003°47'0 0.1
2014-Oct-15 06:33N 51°09' E 003°47'0 0.0
2014-Oct-15 05:33N 51°09' E 003°47'0 0.0
2014-Oct-15 04:33N 51°09' E 003°47'0 0.0
2014-Oct-15 03:34N 51°09' E 003°47'0 0.0
2014-Oct-15 02:33N 51°09' E 003°47'0 0.0
2014-Oct-15 01:34N 51°09' E 003°47'0 0.0
2014-Oct-15 00:33N 51°09' E 003°47'0 0.0
2014-Oct-14 23:33N 51°09' E 003°47'0 0.0
2014-Oct-14 22:33N 51°09' E 003°47'0 0.0
2014-Oct-14 21:33N 51°09' E 003°47'0 0.0
2014-Oct-14 20:33N 51°09' E 003°47'0 0.0
2014-Oct-14 19:33N 51°09' E 003°47'0 0.0
2014-Oct-14 18:33N 51°09' E 003°47'0 0.0
2014-Oct-14 17:33N 51°09' E 003°47'0 0.0
2014-Oct-14 16:33N 51°09' E 003°47'5 4.9
2014-Oct-14 15:33N 51°14' E 003°48'6 5.9
2014-Oct-14 14:33N 51°20' E 003°49'0 0.0
2014-Oct-14 13:31N 51°20' E 003°49'0 0.0
2014-Oct-14 12:33N 51°20' E 003°49'0 0.0
2014-Oct-14 11:33N 51°20' E 003°49'0 0.0
2014-Oct-14 10:33N 51°20' E 003°49'0 0.0
2014-Oct-14 09:33N 51°20' E 003°49'0 0.0
2014-Oct-14 08:33N 51°20' E 003°49'0 0.0
2014-Oct-14 07:33N 51°20' E 003°49'0 0.0
2014-Oct-14 06:33N 51°20' E 003°49'0 0.0
2014-Oct-14 05:33N 51°20' E 003°49'0 0.0
2014-Oct-14 04:33N 51°20' E 003°49'0 0.0
2014-Oct-14 03:33N 51°20' E 003°49'0 0.0
2014-Oct-14 02:31N 51°20' E 003°49'0 0.0
2014-Oct-14 01:32N 51°20' E 003°49'0 0.0
2014-Oct-14 00:32N 51°20' E 003°49'0 0.0
2014-Oct-13 23:33N 51°20' E 003°49'0 0.0
2014-Oct-13 22:33N 51°20' E 003°49'0 0.0
2014-Oct-13 21:33N 51°20' E 003°49'0 0.0
2014-Oct-13 20:31N 51°20' E 003°49'0 0.0
2014-Oct-13 19:32N 51°20' E 003°49'0 0.0
2014-Oct-13 18:33N 51°20' E 003°49'0 0.0
2014-Oct-13 17:33N 51°20' E 003°49'0 0.0
2014-Oct-13 16:32N 51°20' E 003°49'0 0.0
2014-Oct-13 15:33N 51°20' E 003°49'0 0.4
2014-Oct-13 14:33N 51°19' E 003°50'1 0.9
2014-Oct-13 13:34N 51°20' E 003°49'4 4.0
2014-Oct-13 12:31N 51°22' E 003°55'6 6.5
2014-Oct-13 11:33N 51°24' E 004°04'9 8.7
2014-Oct-13 10:33N 51°21' E 004°17'0 0.4
2014-Oct-13 09:33N 51°21' E 004°18'4 4.4
2014-Oct-13 08:33N 51°17' E 004°22'0 0.0
2014-Oct-13 07:33N 51°17' E 004°22'0 0.2
2014-Oct-13 06:33N 51°17' E 004°22'0 0.0
2014-Oct-13 05:33N 51°17' E 004°22'0 0.0
2014-Oct-13 04:33N 51°17' E 004°22'0 0.0
2014-Oct-13 03:33N 51°17' E 004°22'0 0.0
2014-Oct-13 02:33N 51°17' E 004°22'0 0.0
2014-Oct-13 01:33N 51°17' E 004°22'0 0.0
2014-Oct-13 00:33N 51°17' E 004°22'0 0.0
2014-Oct-12 23:33N 51°17' E 004°22'0 0.0
2014-Oct-12 22:33N 51°17' E 004°22'0 0.0
2014-Oct-12 21:33N 51°17' E 004°22'0 0.0
2014-Oct-12 20:33N 51°17' E 004°22'0 0.0
2014-Oct-12 19:33N 51°17' E 004°22'0 0.0
2014-Oct-12 18:33N 51°17' E 004°22'0 0.0
2014-Oct-12 17:33N 51°17' E 004°22'0 0.1
2014-Oct-12 16:33N 51°17' E 004°22'3 3.0
2014-Oct-12 15:33N 51°19' E 004°19'7 6.9
2014-Oct-12 14:33N 51°25' E 004°14'6 5.6
2014-Oct-12 13:33N 51°31' E 004°13'7 7.1
2014-Oct-12 12:30N 51°38' E 004°15'7 6.4
2014-Oct-12 11:27N 51°41' E 004°25'5 5.5
2014-Oct-12 10:32N 51°42' E 004°33'9 8.9
2014-Oct-12 09:33N 51°46' E 004°45'8 8.4
2014-Oct-12 08:33N 51°50' E 004°58'9 9.3
2014-Oct-12 07:33N 51°49' E 005°13'1 0.7
2014-Oct-12 06:33N 51°49' E 005°14'0 0.0
2014-Oct-12 05:33N 51°49' E 005°14'0 0.0
2014-Oct-12 04:33N 51°49' E 005°14'0 0.0
2014-Oct-12 03:33N 51°49' E 005°14'0 0.0
2014-Oct-12 02:33N 51°49' E 005°14'0 0.0
2014-Oct-12 01:33N 51°49' E 005°14'0 0.0
2014-Oct-12 00:33N 51°49' E 005°14'0 0.0
2014-Oct-11 23:33N 51°49' E 005°14'0 0.0
2014-Oct-11 22:33N 51°49' E 005°14'0 0.0
2014-Oct-11 21:33N 51°49' E 005°14'0 0.0
2014-Oct-11 20:33N 51°49' E 005°14'0 0.0
2014-Oct-11 19:33N 51°49' E 005°14'0 0.0
2014-Oct-11 18:33N 51°49' E 005°14'0 0.0
2014-Oct-11 17:33N 51°49' E 005°14'0 0.0
2014-Oct-11 16:33N 51°49' E 005°14'0 0.0
2014-Oct-11 15:33N 51°49' E 005°14'0 0.0
2014-Oct-11 14:33N 51°49' E 005°14'0 0.0
2014-Oct-11 13:33N 51°49' E 005°14'0 0.0
2014-Oct-11 12:33N 51°49' E 005°14'0 0.0
2014-Oct-11 11:33N 51°49' E 005°14'0 0.0
2014-Oct-11 10:33N 51°49' E 005°14'0 0.0
2014-Oct-11 09:33N 51°49' E 005°14'0 0.0
2014-Oct-11 08:33N 51°49' E 005°14'0 0.0
2014-Oct-11 07:33N 51°49' E 005°14'0 0.0
2014-Oct-11 06:33N 51°49' E 005°14'0 0.1
2014-Oct-11 05:33N 51°49' E 005°13'0 0.0
2014-Oct-11 04:33N 51°49' E 005°13'0 0.0
2014-Oct-11 03:33N 51°49' E 005°13'0 0.0
2014-Oct-11 02:33N 51°49' E 005°13'0 0.0
2014-Oct-11 01:33N 51°49' E 005°13'0 0.0
2014-Oct-11 00:33N 51°49' E 005°13'0 0.0
2014-Oct-10 23:33N 51°49' E 005°13'0 0.0
2014-Oct-10 22:33N 51°49' E 005°13'0 0.0
2014-Oct-10 21:33N 51°49' E 005°13'0 0.0
2014-Oct-10 20:33N 51°49' E 005°13'0 0.0
2014-Oct-10 19:33N 51°49' E 005°13'0 0.0
2014-Oct-10 18:33N 51°49' E 005°13'0 0.0
2014-Oct-10 17:33N 51°49' E 005°13'0 0.4
2014-Oct-10 16:33N 51°49' E 005°14'7 7.3
2014-Oct-10 15:33N 51°51' E 005°25'9 8.7
2014-Oct-10 14:33N 51°54' E 005°39'24 7.3
2014-Oct-10 11:14N 51°49' E 006°17'30 6.4
2014-Oct-10 06:30N 51°22' E 006°40'7 7.6
2014-Oct-10 05:33N 51°15' E 006°44'5 5.1
2014-Oct-10 04:33N 51°11' E 006°48'6 5.6
2014-Oct-10 03:31N 51°06' E 006°52'89 2.5
2014-Oct-08 15:22N 50°05' E 008°36'3 3.8
2014-Oct-08 14:33N 50°06' E 008°41'4 4.1
2014-Oct-08 13:33N 50°07' E 008°47'4 4.1
2014-Oct-08 12:33N 50°07' E 008°53'4 4.0
2014-Oct-08 11:33N 50°05' E 008°58'2 2.4
2014-Oct-08 10:32N 50°03' E 008°59'4 3.5
2014-Oct-08 09:31N 50°00' E 009°03'  
Track history (hours):
 
Tides and Currents Weather Stations Pressure Air Temp Water Temp Dewpoint Dewpoint Depression Visibility Wind Speed Wind Dir Waves Ship Positions

Fidato

Last reported at 2014-Oct-18 05:10 UTC. Time now 2014-Oct-21 13:45 UTC.
Position N 51°05' E 006°51'.

Length 135 m; draft 2.5 m.

Type: Ship. MMSI: 244670975.

Date/timePositionNaut miles runAvg speedWind from/ knotsBaromVisibWave heightAir tempDewpointWater temp
2014-Oct-18 05:10N 51°05' E 006°51'2 4.0
2014-Oct-18 04:33N 51°07' E 006°52'3 2.8
2014-Oct-18 03:33N 51°09' E 006°49'3 3.1
2014-Oct-18 02:33N 51°11' E 006°45'0 0.1
2014-Oct-18 01:33N 51°11' E 006°45'0 0.0
2014-Oct-18 00:33N 51°11' E 006°45'0 0.0
2014-Oct-17 23:33N 51°11' E 006°45'0 0.0
2014-Oct-17 22:33N 51°11' E 006°45'0 0.0
2014-Oct-17 21:33N 51°11' E 006°45'0 0.0
2014-Oct-17 20:33N 51°11' E 006°45'0 0.1
2014-Oct-17 19:33N 51°11' E 006°45'3 2.8
2014-Oct-17 18:33N 51°14' E 006°45'2 2.5
2014-Oct-17 17:33N 51°16' E 006°43'4 4.2
2014-Oct-17 16:33N 51°20' E 006°43'31 3.6
2014-Oct-17 08:09N 51°47' E 006°19'19 5.1
2014-Oct-17 04:31N 51°52' E 005°50'6 6.1
2014-Oct-17 03:33N 51°54' E 005°41'5 5.5
2014-Oct-17 02:33N 51°54' E 005°32'0 0.0
2014-Oct-17 01:33N 51°54' E 005°32'0 0.0
2014-Oct-17 00:33N 51°54' E 005°32'0 0.0
2014-Oct-16 23:33N 51°54' E 005°32'0 0.0
2014-Oct-16 22:32N 51°54' E 005°32'0 0.0
2014-Oct-16 21:33N 51°54' E 005°32'0 0.0
2014-Oct-16 20:33N 51°54' E 005°32'0 0.0
2014-Oct-16 19:33N 51°54' E 005°32'3 2.5
2014-Oct-16 18:33N 51°53' E 005°29'6 5.6
2014-Oct-16 17:33N 51°49' E 005°23'5 4.8
2014-Oct-16 16:33N 51°49' E 005°15'6 5.9
2014-Oct-16 15:33N 51°50' E 005°05'7 6.9
2014-Oct-16 14:33N 51°49' E 004°54'7 6.9
2014-Oct-16 13:33N 51°49' E 004°43'3 2.6
2014-Oct-16 12:34N 51°49' E 004°39'3 2.5
2014-Oct-16 11:33N 51°46' E 004°38'7 6.8
2014-Oct-16 10:30N 51°42' E 004°29'3 3.7
2014-Oct-16 09:33N 51°41' E 004°24'7 7.3
2014-Oct-16 08:33N 51°39' E 004°12'2 1.5
2014-Oct-16 07:32N 51°40' E 004°10'4 4.6
2014-Oct-16 06:33N 51°37' E 004°04'5 5.5
2014-Oct-16 05:33N 51°32' E 003°60'5 5.1
2014-Oct-16 04:33N 51°27' E 004°01'1010.0
2014-Oct-16 03:34N 51°20' E 003°49'1 0.6
2014-Oct-16 02:33N 51°20' E 003°49'0 0.0
2014-Oct-16 01:33N 51°20' E 003°49'0 0.0
2014-Oct-16 00:33N 51°20' E 003°49'0 0.0
2014-Oct-15 23:33N 51°20' E 003°49'0 0.0
2014-Oct-15 22:33N 51°20' E 003°49'0 0.0
2014-Oct-15 21:33N 51°20' E 003°49'7 7.0
2014-Oct-15 20:33N 51°13' E 003°48'8 7.5
2014-Oct-15 19:33N 51°06' E 003°45'0 0.3
2014-Oct-15 18:34N 51°05' E 003°45'0 0.0
2014-Oct-15 17:33N 51°05' E 003°45'0 0.0
2014-Oct-15 16:33N 51°05' E 003°45'0 0.0
2014-Oct-15 15:33N 51°05' E 003°45'0 0.0
2014-Oct-15 14:33N 51°05' E 003°45'0 0.0
2014-Oct-15 13:33N 51°05' E 003°45'0 0.0
2014-Oct-15 12:33N 51°05' E 003°45'0 0.3
2014-Oct-15 11:33N 51°06' E 003°45'0 0.0
2014-Oct-15 10:33N 51°06' E 003°45'0 0.0
2014-Oct-15 09:33N 51°06' E 003°45'0 0.0
2014-Oct-15 08:33N 51°06' E 003°45'4 3.6
2014-Oct-15 07:33N 51°09' E 003°47'0 0.1
2014-Oct-15 06:33N 51°09' E 003°47'0 0.0
2014-Oct-15 05:33N 51°09' E 003°47'0 0.0
2014-Oct-15 04:33N 51°09' E 003°47'0 0.0
2014-Oct-15 03:34N 51°09' E 003°47'0 0.0
2014-Oct-15 02:33N 51°09' E 003°47'0 0.0
2014-Oct-15 01:34N 51°09' E 003°47'0 0.0
2014-Oct-15 00:33N 51°09' E 003°47'0 0.0
2014-Oct-14 23:33N 51°09' E 003°47'0 0.0
2014-Oct-14 22:33N 51°09' E 003°47'0 0.0
2014-Oct-14 21:33N 51°09' E 003°47'0 0.0
2014-Oct-14 20:33N 51°09' E 003°47'0 0.0
2014-Oct-14 19:33N 51°09' E 003°47'0 0.0
2014-Oct-14 18:33N 51°09' E 003°47'0 0.0
2014-Oct-14 17:33N 51°09' E 003°47'0 0.0
2014-Oct-14 16:33N 51°09' E 003°47'5 4.9
2014-Oct-14 15:33N 51°14' E 003°48'6 5.9
2014-Oct-14 14:33N 51°20' E 003°49'0 0.0
2014-Oct-14 13:31N 51°20' E 003°49'0 0.0
2014-Oct-14 12:33N 51°20' E 003°49'0 0.0
2014-Oct-14 11:33N 51°20' E 003°49'0 0.0
2014-Oct-14 10:33N 51°20' E 003°49'0 0.0
2014-Oct-14 09:33N 51°20' E 003°49'0 0.0
2014-Oct-14 08:33N 51°20' E 003°49'0 0.0
2014-Oct-14 07:33N 51°20' E 003°49'0 0.0
2014-Oct-14 06:33N 51°20' E 003°49'0 0.0
2014-Oct-14 05:33N 51°20' E 003°49'0 0.0
2014-Oct-14 04:33N 51°20' E 003°49'0 0.0
2014-Oct-14 03:33N 51°20' E 003°49'0 0.0
2014-Oct-14 02:31N 51°20' E 003°49'0 0.0
2014-Oct-14 01:32N 51°20' E 003°49'0 0.0
2014-Oct-14 00:32N 51°20' E 003°49'0 0.0
2014-Oct-13 23:33N 51°20' E 003°49'0 0.0
2014-Oct-13 22:33N 51°20' E 003°49'0 0.0
2014-Oct-13 21:33N 51°20' E 003°49'0 0.0
2014-Oct-13 20:31N 51°20' E 003°49'0 0.0
2014-Oct-13 19:32N 51°20' E 003°49'0 0.0
2014-Oct-13 18:33N 51°20' E 003°49'0 0.0
2014-Oct-13 17:33N 51°20' E 003°49'0 0.0
2014-Oct-13 16:32N 51°20' E 003°49'0 0.0
2014-Oct-13 15:33N 51°20' E 003°49'0 0.4
2014-Oct-13 14:33N 51°19' E 003°50'1 0.9
2014-Oct-13 13:34N 51°20' E 003°49'4 4.0
2014-Oct-13 12:31N 51°22' E 003°55'6 6.5
2014-Oct-13 11:33N 51°24' E 004°04'9 8.7
2014-Oct-13 10:33N 51°21' E 004°17'0 0.4
2014-Oct-13 09:33N 51°21' E 004°18'4 4.4
2014-Oct-13 08:33N 51°17' E 004°22'0 0.0
2014-Oct-13 07:33N 51°17' E 004°22'0 0.2
2014-Oct-13 06:33N 51°17' E 004°22'0 0.0
2014-Oct-13 05:33N 51°17' E 004°22'0 0.0
2014-Oct-13 04:33N 51°17' E 004°22'0 0.0
2014-Oct-13 03:33N 51°17' E 004°22'0 0.0
2014-Oct-13 02:33N 51°17' E 004°22'0 0.0
2014-Oct-13 01:33N 51°17' E 004°22'0 0.0
2014-Oct-13 00:33N 51°17' E 004°22'0 0.0
2014-Oct-12 23:33N 51°17' E 004°22'0 0.0
2014-Oct-12 22:33N 51°17' E 004°22'0 0.0
2014-Oct-12 21:33N 51°17' E 004°22'0 0.0
2014-Oct-12 20:33N 51°17' E 004°22'0 0.0
2014-Oct-12 19:33N 51°17' E 004°22'0 0.0
2014-Oct-12 18:33N 51°17' E 004°22'0 0.0
2014-Oct-12 17:33N 51°17' E 004°22'0 0.1
2014-Oct-12 16:33N 51°17' E 004°22'3 3.0
2014-Oct-12 15:33N 51°19' E 004°19'7 6.9
2014-Oct-12 14:33N 51°25' E 004°14'6 5.6
2014-Oct-12 13:33N 51°31' E 004°13'7 7.1
2014-Oct-12 12:30N 51°38' E 004°15'7 6.4
2014-Oct-12 11:27N 51°41' E 004°25'5 5.5
2014-Oct-12 10:32N 51°42' E 004°33'9 8.9
2014-Oct-12 09:33N 51°46' E 004°45'8 8.4
2014-Oct-12 08:33N 51°50' E 004°58'9 9.3
2014-Oct-12 07:33N 51°49' E 005°13'1 0.7
2014-Oct-12 06:33N 51°49' E 005°14'0 0.0
2014-Oct-12 05:33N 51°49' E 005°14'0 0.0
2014-Oct-12 04:33N 51°49' E 005°14'0 0.0
2014-Oct-12 03:33N 51°49' E 005°14'0 0.0
2014-Oct-12 02:33N 51°49' E 005°14'0 0.0
2014-Oct-12 01:33N 51°49' E 005°14'0 0.0
2014-Oct-12 00:33N 51°49' E 005°14'0 0.0
2014-Oct-11 23:33N 51°49' E 005°14'0 0.0
2014-Oct-11 22:33N 51°49' E 005°14'0 0.0
2014-Oct-11 21:33N 51°49' E 005°14'0 0.0
2014-Oct-11 20:33N 51°49' E 005°14'0 0.0
2014-Oct-11 19:33N 51°49' E 005°14'0 0.0
2014-Oct-11 18:33N 51°49' E 005°14'0 0.0
2014-Oct-11 17:33N 51°49' E 005°14'0 0.0
2014-Oct-11 16:33N 51°49' E 005°14'0 0.0
2014-Oct-11 15:33N 51°49' E 005°14'0 0.0
2014-Oct-11 14:33N 51°49' E 005°14'0 0.0
2014-Oct-11 13:33N 51°49' E 005°14'0 0.0
2014-Oct-11 12:33N 51°49' E 005°14'0 0.0
2014-Oct-11 11:33N 51°49' E 005°14'0 0.0
2014-Oct-11 10:33N 51°49' E 005°14'0 0.0
2014-Oct-11 09:33N 51°49' E 005°14'0 0.0
2014-Oct-11 08:33N 51°49' E 005°14'0 0.0
2014-Oct-11 07:33N 51°49' E 005°14'0 0.0
2014-Oct-11 06:33N 51°49' E 005°14'0 0.1
2014-Oct-11 05:33N 51°49' E 005°13'0 0.0
2014-Oct-11 04:33N 51°49' E 005°13'0 0.0
2014-Oct-11 03:33N 51°49' E 005°13'0 0.0
2014-Oct-11 02:33N 51°49' E 005°13'0 0.0
2014-Oct-11 01:33N 51°49' E 005°13'0 0.0
2014-Oct-11 00:33N 51°49' E 005°13'0 0.0
2014-Oct-10 23:33N 51°49' E 005°13'0 0.0
2014-Oct-10 22:33N 51°49' E 005°13'0 0.0
2014-Oct-10 21:33N 51°49' E 005°13'0 0.0
2014-Oct-10 20:33N 51°49' E 005°13'0 0.0
2014-Oct-10 19:33N 51°49' E 005°13'0 0.0
2014-Oct-10 18:33N 51°49' E 005°13'0 0.0
2014-Oct-10 17:33N 51°49' E 005°13'0 0.4
2014-Oct-10 16:33N 51°49' E 005°14'7 7.3
2014-Oct-10 15:33N 51°51' E 005°25'9 8.7
2014-Oct-10 14:33N 51°54' E 005°39'24 7.3
2014-Oct-10 11:14N 51°49' E 006°17'30 6.4
2014-Oct-10 06:30N 51°22' E 006°40'7 7.6
2014-Oct-10 05:33N 51°15' E 006°44'5 5.1
2014-Oct-10 04:33N 51°11' E 006°48'6 5.6
2014-Oct-10 03:31N 51°06' E 006°52'89 2.5
2014-Oct-08 15:22N 50°05' E 008°36'3 3.8
2014-Oct-08 14:33N 50°06' E 008°41'4 4.1
2014-Oct-08 13:33N 50°07' E 008°47'4 4.1
2014-Oct-08 12:33N 50°07' E 008°53'4 4.0
2014-Oct-08 11:33N 50°05' E 008°58'2 2.4
2014-Oct-08 10:32N 50°03' E 008°59'4 3.5
2014-Oct-08 09:31N 50°00' E 009°03'  

Dump ship's entire track history